Billings, MT (59101)

12:26 AM MST on December 10, 2016 (GMT -0700)
Jupiter Sulphur | | Change Station
Active Advisory: Winter Weather Advisory

Elev 3114 ft 45.78 °N, 108.49 °W | Updated 4 minutes ago

Snow
Snow
7.8 °F
Feels Like 8 °F
N
3.0
Wind Variable Wind from NE
Gusts 5.0 mph

Today
High -- | Low -- °F
--% Chance of Precip.
Yesterday
High -- | Low -- °F
Precip. -- in
Pressure 30.02 in
Visibility 1.0 miles
Clouds Overcast 2000 ft
Windchill 8 °F
Dew Point 4 °F
Humidity 85%
Rainfall 0.00 in
Snow Depth Not available.
7:44 AM 4:29 PM
Waxing Gibbous, 81% visible
SPECI KBIL 100720Z 00000KT 1SM R10L/P6000FT -SN BR OVC020 M15/M17 A3002 RMK AO2 TWR VIS 1 1/2 P0001 T11501167
Pressure 30.02 in
Visibility 1.0 miles
Clouds Overcast 2000 ft
Windchill 8 °F
Dew Point 4 °F
Humidity 85%
Rainfall 0.00 in
Snow Depth Not available.
7:44 AM 4:29 PM
Waxing Gibbous, 81% visible
SPECI KBIL 100720Z 00000KT 1SM R10L/P6000FT -SN BR OVC020 M15/M17 A3002 RMK AO2 TWR VIS 1 1/2 P0001 T11501167

10-Day Weather Forecast

Almanac

Astronomy

Dec. 10, 2016 Rise Set
Actual Time
Civil Twilight
Nautical Twilight
Astronomical Twilight
Moon
Length of Visible Light
Length of Day
Tomorrow will be .
, % of the Moon is Illuminated

Today's Extremes

State Highs State Lows

Community

WunderPhotos

Upload Photos

1,956,527 photos uploaded!

WunderBlog® & News

Nearby

Air Quality

  Air Quality AQ Index Pollutant
Not available.

Snow Depth

Station Depth Elevation

Earthquake Activity

City Distance Mag. Time & Date
Minimum magnitude displayed is 2.5.

Coastal Water Temperatures

Place Temperature

Stations

Nearby Weather Stations

Station Location Temp. Windchill Dew Point Humidity Wind Precip. Elev Updated Type
                   

Watches & Warnings

Winter Weather Advisory
Issued: 7:34 PM MST Dec. 9, 2016 – National Weather Service

... Winter Weather Advisory remains in effect until noon MST
Saturday...

* impacts... slick and snow covered roads. Poor visibility at
times.

* Timing... tonight through mid day Saturday.

* Snow accumulation... 2 to 4 inches.

Precautionary/preparedness actions...

A Winter Weather Advisory can be issued for a variety of winter
weather conditions such as light snow... blowing snow... sleet...
freezing rain... and extreme wind chills.